createdAt,value
2023-05-01T00:01:12.103Z,100916.72
2023-05-01T00:03:38.611Z,100917.56
2023-05-01T00:06:05.345Z,100917.03
2023-05-01T00:08:32.194Z,100913.50
2023-05-01T00:11:03.344Z,100913.88
2023-05-01T00:13:30.004Z,100906.41
2023-05-01T00:15:56.527Z,100897.84
2023-05-01T00:18:23.016Z,100910.41
2023-05-01T00:20:49.326Z,100890.34
2023-05-01T00:23:15.612Z,100893.31
2023-05-01T00:25:41.905Z,100891.34
2023-05-01T00:28:08.200Z,100887.84
2023-05-01T00:30:34.558Z,100886.53
2023-05-01T00:33:02.052Z,100888.41
2023-05-01T00:35:29.805Z,100879.22
2023-05-01T00:37:56.116Z,100886.00
2023-05-01T00:40:22.458Z,100882.13
2023-05-01T00:42:48.802Z,100879.69
2023-05-01T00:45:15.084Z,100881.97
2023-05-01T00:47:41.506Z,100878.16
2023-05-01T00:50:08.549Z,100872.97
2023-05-01T00:52:35.317Z,100866.44
2023-05-01T00:55:01.785Z,100871.47
2023-05-01T00:57:28.247Z,100875.50
2023-05-01T00:59:54.883Z,100871.63
2023-05-01T01:02:21.418Z,100869.97
2023-05-01T01:04:48.149Z,100854.38
2023-05-01T01:07:22.484Z,100848.34
2023-05-01T01:09:55.914Z,100858.06
2023-05-01T01:12:32.293Z,100848.34
2023-05-01T01:15:08.455Z,100841.66
2023-05-01T01:17:49.728Z,100840.84
2023-05-01T01:20:31.308Z,100839.16
2023-05-01T01:23:35.316Z,100832.59
2023-05-01T01:26:10.381Z,100827.22
2023-05-01T01:29:02.626Z,100820.16
2023-05-01T01:32:09.168Z,100820.22
2023-05-01T01:34:44.066Z,100826.25
2023-05-01T01:37:32.547Z,100815.22
2023-05-01T01:40:07.713Z,100815.97
2023-05-01T01:42:49.401Z,100818.34
2023-05-01T01:45:21.320Z,100806.97
2023-05-01T01:47:48.917Z,100806.84
2023-05-01T01:50:16.944Z,100806.97
2023-05-01T01:52:47.424Z,100814.88
2023-05-01T01:55:14.965Z,100800.13
2023-05-01T01:57:43.439Z,100805.47
2023-05-01T02:00:10.959Z,100802.50
2023-05-01T02:02:39.061Z,100795.38
2023-05-01T02:05:07.914Z,100796.78
2023-05-01T02:07:37.597Z,100797.38
2023-05-01T02:10:05.071Z,100788.31
2023-05-01T02:12:33.099Z,100790.31
2023-05-01T02:15:00.757Z,100776.50
2023-05-01T02:17:28.524Z,100773.97
2023-05-01T02:19:56.934Z,100776.16
2023-05-01T02:22:26.324Z,100771.63
2023-05-01T02:24:55.883Z,100772.53
2023-05-01T02:28:01.591Z,100773.56
2023-05-01T02:30:28.015Z,100773.56
2023-05-01T02:32:54.364Z,100766.25
2023-05-01T02:35:20.712Z,100763.56
2023-05-01T02:37:47.154Z,100758.16
2023-05-01T02:40:13.873Z,100756.25
2023-05-01T02:42:42.574Z,100744.22
2023-05-01T02:45:10.632Z,100746.38
2023-05-01T02:47:44.166Z,100748.03
2023-05-01T02:50:11.009Z,100746.56
2023-05-01T02:52:38.313Z,100740.09
2023-05-01T02:55:05.157Z,100743.00
2023-05-01T02:57:33.380Z,100742.41
2023-05-01T02:59:59.804Z,100736.97
2023-05-01T03:02:26.167Z,100731.00
2023-05-01T03:04:52.490Z,100722.81
2023-05-01T03:07:18.801Z,100720.16
2023-05-01T03:09:45.103Z,100721.25
2023-05-01T03:12:11.437Z,100722.28
2023-05-01T03:14:37.732Z,100722.16
2023-05-01T03:17:04.043Z,100715.06
2023-05-01T03:19:30.341Z,100701.19
2023-05-01T03:21:56.661Z,100704.41
2023-05-01T03:24:24.133Z,100701.66
2023-05-01T03:26:50.454Z,100696.78
2023-05-01T03:29:16.747Z,100691.38
2023-05-01T03:31:43.095Z,100693.72
2023-05-01T03:34:09.415Z,100697.78
2023-05-01T03:36:36.273Z,100693.94
2023-05-01T03:39:03.006Z,100700.44
2023-05-01T03:41:29.326Z,100694.53
2023-05-01T03:43:55.627Z,100684.88
2023-05-01T03:46:21.977Z,100686.53
2023-05-01T03:48:48.372Z,100678.50
2023-05-01T03:51:14.687Z,100680.69
2023-05-01T03:53:40.993Z,100679.66
2023-05-01T03:56:07.290Z,100674.03
2023-05-01T03:58:33.608Z,100673.41
2023-05-01T04:00:59.942Z,100663.44
2023-05-01T04:03:26.886Z,100663.97
2023-05-01T04:05:53.284Z,100659.38
2023-05-01T04:08:19.645Z,100663.50
2023-05-01T04:10:45.956Z,100664.66
2023-05-01T04:13:12.263Z,100663.06
2023-05-01T04:15:38.590Z,100674.16
2023-05-01T04:18:05.024Z,100667.41
2023-05-01T04:20:31.441Z,100668.31
2023-05-01T04:22:57.755Z,100663.44
2023-05-01T04:25:24.052Z,100666.22
2023-05-01T04:27:50.584Z,100670.28
2023-05-01T04:30:17.029Z,100661.19
2023-05-01T04:32:43.443Z,100659.63
2023-05-01T04:35:09.896Z,100655.56
2023-05-01T04:37:36.210Z,100647.94
2023-05-01T04:40:02.543Z,100644.06
2023-05-01T04:42:32.233Z,100642.25
2023-05-01T04:44:58.688Z,100646.56
2023-05-01T04:47:25.001Z,100637.94
2023-05-01T04:49:51.314Z,100637.91
2023-05-01T04:52:17.595Z,100640.09
2023-05-01T04:54:43.908Z,100641.72
2023-05-01T04:57:10.248Z,100644.97
2023-05-01T04:59:36.552Z,100644.97
2023-05-01T05:02:02.937Z,100643.59
2023-05-01T05:04:29.288Z,100641.44
2023-05-01T05:06:55.635Z,100637.41
2023-05-01T05:09:21.994Z,100641.16
2023-05-01T05:11:48.297Z,100636.56
2023-05-01T05:14:14.595Z,100629.81
2023-05-01T05:16:40.974Z,100635.75
2023-05-01T05:19:07.413Z,100632.00
2023-05-01T05:21:33.992Z,100634.66
2023-05-01T05:24:00.288Z,100621.41
2023-05-01T05:26:26.646Z,100628.41
2023-05-01T05:28:53.152Z,100635.66
2023-05-01T05:31:19.509Z,100636.72
2023-05-01T05:33:45.838Z,100630.13
2023-05-01T05:36:12.151Z,100628.72
2023-05-01T05:38:38.451Z,100619.38
2023-05-01T05:41:04.828Z,100614.28
2023-05-01T05:43:31.146Z,100614.78
2023-05-01T05:45:58.638Z,100614.44
2023-05-01T05:48:25.392Z,100607.97
2023-05-01T05:50:51.728Z,100610.78
2023-05-01T05:53:21.752Z,100612.66
2023-05-01T05:55:49.412Z,100604.88
2023-05-01T05:58:15.772Z,100610.31
2023-05-01T06:00:42.170Z,100602.13
2023-05-01T06:03:08.634Z,100594.63
2023-05-01T06:05:35.169Z,100605.38
2023-05-01T06:08:01.496Z,100602.81
2023-05-01T06:10:27.791Z,100600.00
2023-05-01T06:12:58.580Z,100599.72
2023-05-01T06:15:30.868Z,100604.72
2023-05-01T06:17:57.244Z,100596.00
2023-05-01T06:20:23.921Z,100596.91
2023-05-01T06:22:50.278Z,100597.97
2023-05-01T06:25:16.583Z,100595.47
2023-05-01T06:27:43.027Z,100593.19
2023-05-01T06:30:09.879Z,100599.78
2023-05-01T06:32:36.269Z,100594.63
2023-05-01T06:35:02.614Z,100587.50
2023-05-01T06:37:28.929Z,100593.84
2023-05-01T06:39:55.651Z,100592.56
2023-05-01T06:42:22.086Z,100580.16
2023-05-01T06:44:48.448Z,100582.50
2023-05-01T06:47:14.817Z,100581.25
2023-05-01T06:49:41.201Z,100577.06
2023-05-01T06:52:07.499Z,100585.75
2023-05-01T06:54:33.926Z,100585.19
2023-05-01T06:57:00.220Z,100576.25
2023-05-01T06:59:26.606Z,100576.31
2023-05-01T07:01:53.148Z,100577.44
2023-05-01T07:04:19.562Z,100569.97
2023-05-01T07:06:45.955Z,100580.78
2023-05-01T07:09:12.663Z,100583.75
2023-05-01T07:11:39.137Z,100580.03
2023-05-01T07:14:05.466Z,100575.91
2023-05-01T07:16:31.832Z,100577.16
2023-05-01T07:18:58.197Z,100572.31
2023-05-01T07:21:24.646Z,100567.91
2023-05-01T07:23:50.969Z,100577.72
2023-05-01T07:26:17.301Z,100570.63
2023-05-01T07:28:43.647Z,100570.97
2023-05-01T07:31:09.998Z,100569.22
2023-05-01T07:33:37.152Z,100571.25
2023-05-01T07:36:04.173Z,100563.81
2023-05-01T07:38:30.976Z,100564.28
2023-05-01T07:40:57.359Z,100568.94
2023-05-01T07:43:23.681Z,100563.56
2023-05-01T07:46:01.036Z,100552.03
2023-05-01T07:48:28.446Z,100553.28
2023-05-01T07:50:55.450Z,100546.69
2023-05-01T07:53:21.844Z,100546.81
2023-05-01T07:55:48.713Z,100536.69
2023-05-01T07:58:15.539Z,100545.47
2023-05-01T08:00:41.867Z,100542.34
2023-05-01T08:03:08.332Z,100549.06
2023-05-01T08:05:34.723Z,100546.09
2023-05-01T08:08:01.090Z,100541.84
2023-05-01T08:10:27.538Z,100540.44
2023-05-01T08:12:53.868Z,100537.72
2023-05-01T08:15:20.170Z,100534.72
2023-05-01T08:17:46.488Z,100539.28
2023-05-01T08:20:13.080Z,100533.97
2023-05-01T08:22:39.390Z,100536.50
2023-05-01T08:25:06.241Z,100535.16
2023-05-01T08:27:32.583Z,100530.94
2023-05-01T08:29:59.106Z,100530.94
2023-05-01T08:32:25.577Z,100529.13
2023-05-01T08:34:51.931Z,100530.50
2023-05-01T08:37:18.284Z,100529.25
2023-05-01T08:39:45.073Z,100530.53
2023-05-01T08:42:11.642Z,100520.34
2023-05-01T08:44:41.167Z,100519.94
2023-05-01T08:47:17.759Z,100519.75
2023-05-01T08:49:45.913Z,100524.63
2023-05-01T08:52:14.578Z,100530.00
2023-05-01T08:54:45.445Z,100526.69
2023-05-01T08:57:12.631Z,100517.31
2023-05-01T08:59:40.251Z,100513.31
2023-05-01T09:02:08.761Z,100509.41
2023-05-01T09:04:40.681Z,100513.63
2023-05-01T09:07:08.526Z,100512.97
2023-05-01T09:09:35.265Z,100508.47
2023-05-01T09:12:12.629Z,100509.28
2023-05-01T09:14:39.329Z,100506.00
2023-05-01T09:17:06.074Z,100496.94
2023-05-01T09:19:32.598Z,100506.78
2023-05-01T09:21:58.972Z,100504.50
2023-05-01T09:24:25.333Z,100501.53
2023-05-01T09:26:52.089Z,100496.03
2023-05-01T09:29:38.274Z,100503.72
2023-05-01T09:32:17.891Z,100499.47
2023-05-01T09:34:44.767Z,100501.53
2023-05-01T09:37:13.725Z,100491.66
2023-05-01T09:39:40.193Z,100492.09
2023-05-01T09:42:06.689Z,100490.50
2023-05-01T09:44:40.716Z,100487.72
2023-05-01T09:47:07.084Z,100485.03
2023-05-01T09:49:47.107Z,100485.91
2023-05-01T09:52:13.677Z,100485.13
2023-05-01T09:54:40.170Z,100480.22
2023-05-01T09:57:06.743Z,100472.00
2023-05-01T09:59:33.114Z,100476.38
2023-05-01T10:01:59.590Z,100479.25
2023-05-01T10:04:35.172Z,100469.13
2023-05-01T10:07:12.238Z,100477.56
2023-05-01T10:09:38.947Z,100477.25
2023-05-01T10:12:05.736Z,100470.88
2023-05-01T10:14:32.051Z,100470.81
2023-05-01T10:16:58.467Z,100472.75
2023-05-01T10:19:25.135Z,100467.09
2023-05-01T10:21:51.435Z,100461.91
2023-05-01T10:24:17.991Z,100472.34
2023-05-01T10:26:44.566Z,100467.69
2023-05-01T10:29:12.633Z,100465.81
2023-05-01T10:31:40.746Z,100469.22
2023-05-01T10:34:09.017Z,100466.78
2023-05-01T10:36:43.317Z,100457.25
2023-05-01T10:39:31.577Z,100458.59
2023-05-01T10:41:57.842Z,100455.28
2023-05-01T10:44:25.817Z,100449.66
2023-05-01T10:46:52.694Z,100458.22
2023-05-01T10:49:19.366Z,100450.38
2023-05-01T10:51:58.389Z,100441.06
2023-05-01T10:54:26.429Z,100449.59
2023-05-01T10:56:54.453Z,100444.03
2023-05-01T10:59:20.932Z,100433.97
2023-05-01T11:01:49.006Z,100434.69
2023-05-01T11:04:21.394Z,100433.03
2023-05-01T11:07:03.058Z,100431.03
2023-05-01T11:09:42.334Z,100424.19
2023-05-01T11:12:11.478Z,100430.25
2023-05-01T11:14:56.265Z,100424.28
2023-05-01T11:17:40.962Z,100409.88
2023-05-01T11:20:07.786Z,100408.22
2023-05-01T11:22:34.926Z,100404.53
2023-05-01T11:25:02.041Z,100398.28
2023-05-01T11:27:28.664Z,100402.91
2023-05-01T11:29:55.539Z,100407.78
2023-05-01T11:32:27.762Z,100400.97
2023-05-01T11:34:54.726Z,100398.16
2023-05-01T11:37:39.304Z,100395.56
2023-05-01T11:40:19.603Z,100400.13
2023-05-01T11:42:45.928Z,100395.19
2023-05-01T11:45:12.717Z,100403.88
2023-05-01T11:47:39.813Z,100396.50
2023-05-01T11:50:07.838Z,100392.50
2023-05-01T11:52:48.654Z,100386.59
2023-05-01T11:55:16.097Z,100387.47
2023-05-01T11:57:49.992Z,100388.19
2023-05-01T12:00:26.135Z,100383.00
2023-05-01T12:03:02.709Z,100375.25
2023-05-01T12:05:31.222Z,100380.84
2023-05-01T12:08:11.313Z,100377.88
2023-05-01T12:10:39.592Z,100373.69
2023-05-01T12:13:07.314Z,100369.38
2023-05-01T12:15:38.969Z,100376.09
2023-05-01T12:18:05.947Z,100377.56
2023-05-01T12:20:46.741Z,100381.88
2023-05-01T12:23:14.922Z,100369.19
2023-05-01T12:25:42.424Z,100373.44
2023-05-01T12:28:11.477Z,100378.22
2023-05-01T12:30:38.860Z,100367.91
2023-05-01T12:33:15.873Z,100366.75
2023-05-01T12:35:43.597Z,100370.00
2023-05-01T12:38:11.750Z,100370.81
2023-05-01T12:40:39.656Z,100366.22
2023-05-01T12:43:06.047Z,100366.13
2023-05-01T12:45:39.245Z,100362.69
2023-05-01T12:48:14.820Z,100357.00
2023-05-01T12:50:41.563Z,100354.03
2023-05-01T12:53:08.972Z,100349.78
2023-05-01T12:55:46.702Z,100347.66
2023-05-01T12:58:13.607Z,100351.19
2023-05-01T13:00:45.245Z,100347.63
2023-05-01T13:03:12.327Z,100351.19
2023-05-01T13:05:50.582Z,100348.09
2023-05-01T13:08:25.658Z,100345.00
2023-05-01T13:10:56.518Z,100343.97
2023-05-01T13:13:31.312Z,100346.34
2023-05-01T13:16:10.387Z,100343.00
2023-05-01T13:18:51.511Z,100331.38
2023-05-01T13:21:23.523Z,100329.41
2023-05-01T13:23:58.427Z,100337.00
2023-05-01T13:26:26.562Z,100332.69
2023-05-01T13:28:52.950Z,100336.41
2023-05-01T13:31:19.408Z,100332.03
2023-05-01T13:33:45.867Z,100333.88
2023-05-01T13:36:24.602Z,100330.44
2023-05-01T13:38:54.756Z,100332.00
2023-05-01T13:41:22.447Z,100334.09
2023-05-01T13:43:49.783Z,100329.41
2023-05-01T13:46:19.288Z,100335.31
2023-05-01T13:48:45.944Z,100319.38
2023-05-01T13:51:12.676Z,100321.00
2023-05-01T13:53:40.592Z,100309.34
2023-05-01T13:56:09.560Z,100313.19
2023-05-01T13:58:36.834Z,100312.69
2023-05-01T14:01:04.704Z,100306.91
2023-05-01T14:03:39.731Z,100305.31
2023-05-01T14:06:09.928Z,100310.03
2023-05-01T14:08:36.455Z,100316.00
2023-05-01T14:11:05.663Z,100306.47
2023-05-01T14:13:32.026Z,100319.44
2023-05-01T14:15:58.331Z,100306.22
2023-05-01T14:18:24.717Z,100311.75
2023-05-01T14:20:51.099Z,100312.59
2023-05-01T14:23:17.408Z,100301.25
2023-05-01T14:25:49.128Z,100308.41
2023-05-01T14:28:15.423Z,100305.44
2023-05-01T14:30:41.866Z,100313.97
2023-05-01T14:33:11.278Z,100307.50
2023-05-01T14:35:47.237Z,100312.31
2023-05-01T14:38:15.094Z,100310.00
2023-05-01T14:40:41.861Z,100308.16
2023-05-01T14:43:09.869Z,100311.09
2023-05-01T14:45:40.308Z,100308.66
2023-05-01T14:48:06.703Z,100300.47
2023-05-01T14:50:33.092Z,100310.41
2023-05-01T14:53:00.903Z,100308.84
2023-05-01T14:55:29.869Z,100301.69
2023-05-01T14:57:57.396Z,100301.69
2023-05-01T15:00:24.289Z,100293.97
2023-05-01T15:02:51.038Z,100291.31
2023-05-01T15:05:17.907Z,100292.06
2023-05-01T15:07:44.236Z,100287.31
2023-05-01T15:10:10.899Z,100296.50
2023-05-01T15:12:37.207Z,100301.38
2023-05-01T15:15:03.734Z,100284.25
2023-05-01T15:17:31.093Z,100295.03
2023-05-01T15:19:58.599Z,100293.38
2023-05-01T15:22:24.946Z,100297.91
2023-05-01T15:24:51.248Z,100293.34
2023-05-01T15:27:17.589Z,100296.66
2023-05-01T15:29:43.899Z,100304.88
2023-05-01T15:32:12.364Z,100296.69
2023-05-01T15:34:39.474Z,100290.31
2023-05-01T15:37:05.798Z,100294.69
2023-05-01T15:39:32.192Z,100288.22
2023-05-01T15:41:58.722Z,100280.09
2023-05-01T15:44:25.002Z,100289.19
2023-05-01T15:46:51.392Z,100289.28
2023-05-01T15:49:17.740Z,100282.19
2023-05-01T15:51:44.051Z,100289.84
2023-05-01T15:54:10.503Z,100290.97
2023-05-01T15:56:37.630Z,100289.03
2023-05-01T15:59:05.439Z,100293.38
2023-05-01T16:01:33.128Z,100295.34
2023-05-01T16:04:00.269Z,100297.28
2023-05-01T16:06:26.983Z,100289.75
2023-05-01T16:08:53.561Z,100301.19
2023-05-01T16:11:19.968Z,100299.50
2023-05-01T16:13:46.291Z,100299.31
2023-05-01T16:16:19.087Z,100294.09
2023-05-01T16:18:45.596Z,100296.06
2023-05-01T16:21:15.790Z,100296.94
2023-05-01T16:23:42.782Z,100288.41
2023-05-01T16:26:09.840Z,100297.81
2023-05-01T16:28:36.475Z,100291.38
2023-05-01T16:31:08.294Z,100298.63
2023-05-01T16:33:39.504Z,100293.16
2023-05-01T16:36:09.026Z,100293.66
2023-05-01T16:38:36.361Z,100292.91
2023-05-01T16:41:02.726Z,100298.28
2023-05-01T16:43:29.051Z,100296.22
2023-05-01T16:45:57.695Z,100296.31
2023-05-01T16:48:24.555Z,100303.25
2023-05-01T16:50:51.211Z,100306.03
2023-05-01T16:53:17.534Z,100313.00
2023-05-01T16:55:44.152Z,100314.41
2023-05-01T16:58:10.467Z,100306.91
2023-05-01T17:00:36.752Z,100311.00
2023-05-01T17:03:03.121Z,100317.34
2023-05-01T17:05:29.511Z,100321.06
2023-05-01T17:07:55.809Z,100314.75
2023-05-01T17:10:22.112Z,100326.19
2023-05-01T17:12:48.426Z,100325.13
2023-05-01T17:15:14.765Z,100325.59
2023-05-01T17:17:41.188Z,100330.88
2023-05-01T17:20:08.178Z,100331.81
2023-05-01T17:22:34.500Z,100340.06
2023-05-01T17:25:00.839Z,100334.81
2023-05-01T17:27:27.141Z,100338.22
2023-05-01T17:29:53.478Z,100351.25
2023-05-01T17:32:33.209Z,100351.56
2023-05-01T17:35:03.679Z,100361.94
2023-05-01T17:37:29.989Z,100358.28
2023-05-01T17:39:56.453Z,100364.47
2023-05-01T17:42:22.928Z,100358.50
2023-05-01T17:44:49.243Z,100368.78
2023-05-01T17:47:15.544Z,100377.22
2023-05-01T17:49:41.844Z,100373.94
2023-05-01T17:52:08.375Z,100372.69
2023-05-01T17:54:34.673Z,100376.53
2023-05-01T17:57:00.984Z,100382.00
2023-05-01T17:59:27.320Z,100396.38
2023-05-01T18:01:53.697Z,100397.09
2023-05-01T18:04:20.176Z,100389.13
2023-05-01T18:06:46.599Z,100384.03
2023-05-01T18:09:12.975Z,100394.78
2023-05-01T18:11:39.274Z,100395.97
2023-05-01T18:14:05.582Z,100388.22
2023-05-01T18:16:31.958Z,100389.75
2023-05-01T18:18:58.309Z,100390.38
2023-05-01T18:21:25.026Z,100386.09
2023-05-01T18:23:51.382Z,100395.22
2023-05-01T18:26:17.732Z,100404.00
2023-05-01T18:28:44.049Z,100398.06
2023-05-01T18:31:10.401Z,100404.19
2023-05-01T18:33:36.782Z,100406.66
2023-05-01T18:36:04.379Z,100411.81
2023-05-01T18:38:30.670Z,100421.53
2023-05-01T18:40:56.986Z,100426.94
2023-05-01T18:43:23.389Z,100433.22
2023-05-01T18:45:49.755Z,100450.28
2023-05-01T18:48:16.165Z,100459.25
2023-05-01T18:50:42.989Z,100465.38
2023-05-01T18:53:10.782Z,100463.63
2023-05-01T18:55:37.094Z,100459.28
2023-05-01T18:58:03.422Z,100466.34
2023-05-01T19:00:29.733Z,100470.19
2023-05-01T19:02:56.350Z,100470.19
2023-05-01T19:05:22.904Z,100461.84
2023-05-01T19:07:49.861Z,100456.34
2023-05-01T19:10:16.252Z,100461.03
2023-05-01T19:12:42.543Z,100460.53
2023-05-01T19:15:09.471Z,100465.72
2023-05-01T19:17:35.820Z,100471.97
2023-05-01T19:20:02.366Z,100477.13
2023-05-01T19:22:28.752Z,100500.44
2023-05-01T19:24:55.079Z,100512.47
2023-05-01T19:27:21.375Z,100527.91
2023-05-01T19:29:47.675Z,100539.94
2023-05-01T19:32:14.141Z,100549.69
2023-05-01T19:34:40.671Z,100543.03
2023-05-01T19:37:07.081Z,100559.19
2023-05-01T19:39:33.375Z,100564.81
2023-05-01T19:41:59.692Z,100559.44
2023-05-01T19:44:26.045Z,100558.22
2023-05-01T19:46:52.349Z,100563.91
2023-05-01T19:49:18.680Z,100564.19
2023-05-01T19:51:45.383Z,100560.91
2023-05-01T19:54:11.708Z,100564.19
2023-05-01T19:56:38.007Z,100558.25
2023-05-01T19:59:04.314Z,100565.50
2023-05-01T20:01:30.662Z,100569.53
2023-05-01T20:03:57.204Z,100570.22
2023-05-01T20:06:23.644Z,100568.13
2023-05-01T20:08:49.997Z,100568.13
2023-05-01T20:11:16.352Z,100568.91
2023-05-01T20:13:42.678Z,100577.94
2023-05-01T20:16:09.007Z,100572.41
2023-05-01T20:18:35.329Z,100573.22
2023-05-01T20:21:01.639Z,100573.53
2023-05-01T20:23:27.981Z,100573.28
2023-05-01T20:25:54.302Z,100569.66
2023-05-01T20:28:20.634Z,100574.59
2023-05-01T20:30:48.563Z,100570.53
2023-05-01T20:33:15.292Z,100574.06
2023-05-01T20:35:41.627Z,100574.69
2023-05-01T20:38:07.966Z,100573.25
2023-05-01T20:40:36.576Z,100570.06
2023-05-01T20:43:02.972Z,100575.78
2023-05-01T20:45:29.268Z,100574.78
2023-05-01T20:47:55.640Z,100569.81
2023-05-01T20:50:21.977Z,100577.06
2023-05-01T20:52:48.503Z,100576.19
2023-05-01T20:55:14.833Z,100577.94
2023-05-01T20:57:41.158Z,100581.47
2023-05-01T21:00:07.949Z,100582.34
2023-05-01T21:02:36.957Z,100580.75
2023-05-01T21:05:03.593Z,100586.00
2023-05-01T21:07:30.047Z,100584.41
2023-05-01T21:09:56.553Z,100583.59
2023-05-01T21:12:22.929Z,100580.44
2023-05-01T21:14:49.248Z,100582.16
2023-05-01T21:17:15.897Z,100583.56
2023-05-01T21:19:46.394Z,100587.00
2023-05-01T21:22:16.213Z,100591.41
2023-05-01T21:24:44.329Z,100587.00
2023-05-01T21:27:11.644Z,100585.38
2023-05-01T21:29:40.038Z,100584.56
2023-05-01T21:32:07.804Z,100591.22
2023-05-01T21:34:34.619Z,100590.63
2023-05-01T21:37:00.984Z,100592.44
2023-05-01T21:39:27.453Z,100594.25
2023-05-01T21:41:53.755Z,100600.09
2023-05-01T21:44:21.778Z,100599.88
2023-05-01T21:46:48.106Z,100602.72
2023-05-01T21:49:15.753Z,100608.16
2023-05-01T21:51:42.116Z,100604.75
2023-05-01T21:54:08.602Z,100611.59
2023-05-01T21:56:34.903Z,100609.97
2023-05-01T21:59:02.174Z,100622.66
2023-05-01T22:01:28.639Z,100624.59
2023-05-01T22:03:55.094Z,100621.66
2023-05-01T22:06:21.510Z,100630.72
2023-05-01T22:08:47.898Z,100629.22
2023-05-01T22:11:14.207Z,100633.53
2023-05-01T22:13:40.506Z,100633.94
2023-05-01T22:16:07.346Z,100632.13
2023-05-01T22:18:33.768Z,100641.00
2023-05-01T22:21:00.188Z,100637.34
2023-05-01T22:23:26.509Z,100639.25
2023-05-01T22:25:52.829Z,100646.44
2023-05-01T22:28:20.357Z,100634.38
2023-05-01T22:30:47.272Z,100640.09
2023-05-01T22:33:13.620Z,100646.44
2023-05-01T22:35:39.967Z,100652.81
2023-05-01T22:38:06.247Z,100651.41
2023-05-01T22:40:32.601Z,100651.09
2023-05-01T22:42:58.918Z,100652.28
2023-05-01T22:45:25.217Z,100657.72
2023-05-01T22:47:51.566Z,100661.34
2023-05-01T22:50:17.898Z,100662.16
2023-05-01T22:52:46.408Z,100659.91
2023-05-01T22:55:12.950Z,100663.94
2023-05-01T22:57:39.248Z,100672.00
2023-05-01T23:00:06.503Z,100672.22
2023-05-01T23:02:33.609Z,100680.06
2023-05-01T23:04:59.956Z,100679.25
2023-05-01T23:07:26.282Z,100679.66
2023-05-01T23:09:52.597Z,100674.41
2023-05-01T23:12:20.307Z,100685.69
2023-05-01T23:14:46.651Z,100677.94
2023-05-01T23:17:13.950Z,100676.81
2023-05-01T23:19:41.583Z,100681.44
2023-05-01T23:22:09.985Z,100675.28
2023-05-01T23:24:42.084Z,100683.09
2023-05-01T23:27:08.638Z,100682.97
2023-05-01T23:29:35.139Z,100687.28
2023-05-01T23:32:01.592Z,100686.03
2023-05-01T23:34:28.718Z,100687.16
2023-05-01T23:36:55.043Z,100687.16
2023-05-01T23:39:21.352Z,100692.66
2023-05-01T23:41:48.281Z,100685.09
2023-05-01T23:44:14.582Z,100685.91
2023-05-01T23:46:41.724Z,100696.44
2023-05-01T23:49:08.105Z,100696.50
2023-05-01T23:51:34.532Z,100695.31
2023-05-01T23:54:00.846Z,100702.88
2023-05-01T23:56:27.164Z,100695.31
2023-05-01T23:58:53.481Z,100697.44
